AirNav   MODERNIZE NOT PRIVATIZE ATC
 
 964 users online  

0IL1 Loyola University Medical Center Heliport
Broadview, Illinois, USA

GOING TO BROADVIEW?


FAA INFORMATION EFFECTIVE 20 JULY 2017

Location

FAA Identifier: 0IL1
Lat/Long: 41-51-39.1130N / 087-50-11.2130W
41-51.651883N / 087-50.186883W
41.8608647 / -87.8364481
(estimated)
Elevation: 623 ft. / 190 m (estimated)
Variation: 01W (1985)
Time zone: UTC -5 (UTC -6 during Standard Time)
Zip code: 60141

Heliport Operations

Heliport use: Private use, MEDICAL USE.
Activation date: 11/1989
Control tower: no
ARTCC: CHICAGO CENTER
FSS: KANKAKEE FLIGHT SERVICE STATION
Attendance: CONTINUOUS
Wind indicator: lighted
Segmented circle: no
Beacon: white-green-yellow (heliport)
24 HRS

Heliport Communications

UNICOM: 123.05
WX ASOS at MDW (6 nm SE): PHONE 773-884-4424
WX ASOS at ORD (8 nm NW): PHONE 773-462-0118
WX AWOS-AV at 06C (14 nm NW): 128.275
WX ASOS at PWK (15 nm N): PHONE 847-465-0291
WX ASOS at DPA (19 nm W): PHONE 630-584-2728
WX AWOS-3 at LOT (19 nm SW): 118.525 (815-588-4802)

Nearby radio navigation aids

VOR radial/distance  VOR name  Freq  Var
ORDr156/8.2CHICAGO O'HARE VOR/DME113.9002E
OBKr169/22.2NORTHBROOK VOR/DME113.0002W
DPAr092/23.0DUPAGE VOR/DME108.4002E
CGTr329/24.2CHICAGO HEIGHTS VORTAC114.2002E
JOTr047/28.7JOLIET VORTAC112.3002E
EONr355/35.5PEOTONE VORTAC113.2002E

Heliport Services

Runway Information

Helipad H1

Dimensions: 90 x 90 ft. / 27 x 27 m
Surface: concrete
Runway edge lights: PERIMETER LIGHTS.
Latitude: 41-51.651883N
Longitude: 087-50.186883W
Elevation: 623.0 ft.
Traffic pattern: leftleft

Heliport Ownership and Management from official FAA records

Ownership: Privately-owned
Owner: LOYOLA UNIVERSITY MED CENTER
2160 S 1ST AVENUE
MAYWOOD, IL 60153
Phone 708-216-5862
Manager: DAVE NIKSIC
2160 S 1ST AVENUE
MAYWOOD, IL 60153
Phone (708) 216-9503
CONTACT 701-216-9000 PHYSICAL PLANT AND GROUNDS

Heliport Operational Statistics

Aircraft based on the field: 1
Multi engine airplanes: 1
    

Instrument Procedures

There are no published instrument procedures at 0IL1.

Some nearby airports with instrument procedures:

KMDW - Chicago Midway International Airport (6 nm SE)
KORD - Chicago O'Hare International Airport (8 nm NW)
KPWK - Chicago Executive Airport (15 nm N)
1C5 - Bolingbrook's Clow International Airport (16 nm SW)
KDPA - DuPage Airport (19 nm W)
KLOT - Lewis University Airport (19 nm SW)
 
Loc | Ops | Rwys | IFR | FBO | Links
Com | Nav | Svcs | Stats | Notes


 
Area around 0IL1 (Loyola University Medical Center Heliport)
 
Road maps at: MapQuest Bing Google
 
Aerial photo
No photo
 
Sectional chart

 
Airport distance calculator
Flying to Loyola University Medical Center Heliport? Find the distance to fly.

From to 0IL1

Sunrise and sunset
Times for 27-Jul-2017
 Local
(UTC-5)
 Zulu
(UTC)
Morning civil twilight05:0910:09
Sunrise05:4110:41
Sunset20:1401:14
Evening civil twilight20:4601:46

Current date and time
Zulu (UTC)  27-Jul-2017 12:45:04
Local (UTC-5)  27-Jul-2017 07:45:04
 
METAR
KMDW 
6nm SE 
271153Z 03004KT 6SM BR FEW060 SCT080 24/22 A2992 RMK AO2 SLP120 60000 70007 T02440217 10250 20233 50006
KORD 
9nm NW 
271151Z 36007KT 5SM HZ FEW008 SCT075 BKN110 23/21 A2993 RMK AO2 SLP128 60000 70003 T02330206 10244 20228 50007
4IS3 
11nm SE 
SuperAWOS
271215Z AUTO VRB05KT 7SM 24/22 A2996
KPWK 
16nm N 
271152Z 35004KT 7SM BKN120 23/22 A2995 RMK AO2 SLP135 70001 T02280222 10244 20222 50003
KDPA 
19nm W 
271152Z 35005KT 5SM BR OVC100 22/22 A2994 RMK AO2 SLP132 70021 T02220222 10228 20211 50009
KLOT 
19nm SW 
271235Z AUTO 06005KT 10SM BKN090 23/21 A2993 RMK AO2 T02310206
TAF
KMDW 
6nm SE 
271122Z 2712/2812 01006KT 6SM BR SCT010 BKN035 TEMPO 2712/2713 4SM BR FM271500 03009KT P6SM SCT020 BKN035 FM272000 03012G19KT P6SM SCT025 BKN040 FM280200 02010KT P6SM FEW040 BKN250
KORD 
9nm NW 
271122Z 2712/2818 01006KT 6SM BR SCT010 BKN035 TEMPO 2712/2713 4SM BR FM271500 03009KT P6SM SCT020 BKN035 FM272000 04012G19KT P6SM SCT025 BKN040 FM280200 03010KT P6SM FEW040 BKN250 FM281400 03012G19KT P6SM SCT030
KDPA 
19nm W 
271122Z 2712/2812 01006KT 6SM BR SCT010 BKN030 TEMPO 2712/2713 OVC010 FM271500 03008KT P6SM SCT020 BKN035 FM272000 03011G17KT P6SM SCT025 BKN040 FM280200 02008KT P6SM FEW040 BKN250
NOTAMs
Click for the latest NOTAMs
NOTAMs are issued by the DoD/FAA and will open in a separate window not controlled by AirNav.

 

 
 

Would you like to see your business listed on this page?

 If your business provides an interesting product or service to pilots, flight crews, aircraft, or users of the Loyola University Medical Center Heliport, you should consider listing it here.  To start the listing process, click on the button below
 
Add a business
 

Other Pages about Loyola University Medical Center Heliport

Update a link
 
Copyright © AirNav, LLC. All rights reserved. Privacy Policy  Contact